Time;durP1;ratioP1;P1;durP2;ratioP2;P2;SDS_P1;SDS_P2;PMS_P1;PMS_P2;Temp;Humidity;BMP_temperature;BMP_pressure;BME280_temperature;BME280_humidity;BME280_pressure;Samples;Min_cycle;Max_cycle;Signal;HPM_P1;HPM_P2
2023/03/09 04:02:44;;;;;;;1.90;0.70;;;9.60;86.90;;;;;;4993515;23;20497;-74
2023/03/09 04:05:10;;;;;;;2.00;0.80;;;9.60;86.80;;;;;;4976995;28;20446;-74
2023/03/09 04:07:37;;;;;;;4.20;0.90;;;9.50;86.50;;;;;;4977167;28;20465;-73
2023/03/09 04:10:04;;;;;;;2.20;0.80;;;9.60;86.40;;;;;;4976983;28;20447;-73
2023/03/09 04:12:31;;;;;;;2.10;0.90;;;9.60;86.60;;;;;;4976851;28;20836;-73
2023/03/09 04:14:58;;;;;;;2.27;0.90;;;9.60;86.80;;;;;;4976492;28;20519;-73
2023/03/09 04:17:24;;;;;;;2.03;0.77;;;9.60;86.50;;;;;;4976823;28;20872;-72
2023/03/09 04:19:52;;;;;;;3.40;1.17;;;9.60;86.30;;;;;;4976806;28;20445;-73
2023/03/09 04:22:19;;;;;;;3.30;1.03;;;9.60;86.30;;;;;;4976746;28;20473;-73
2023/03/09 04:24:48;;;;;;;4.10;1.33;;;9.60;86.10;;;;;;4976689;28;20470;-73
2023/03/09 04:27:15;;;;;;;2.27;1.03;;;9.50;86.40;;;;;;4976583;28;20533;-72
2023/03/09 04:29:42;;;;;;;2.63;1.40;;;9.50;86.30;;;;;;4976647;28;20501;-72
2023/03/09 04:32:08;;;;;;;3.67;1.33;;;9.50;86.50;;;;;;4976570;28;20818;-72
2023/03/09 04:34:35;;;;;;;3.17;1.40;;;9.50;86.10;;;;;;4976508;28;20454;-73
2023/03/09 04:37:03;;;;;;;3.83;1.20;;;9.50;85.90;;;;;;4976507;28;20446;-73
2023/03/09 04:39:30;;;;;;;2.93;1.13;;;9.60;86.40;;;;;;4976976;28;20451;-72
2023/03/09 04:41:56;;;;;;;2.97;1.43;;;9.70;86.00;;;;;;4976045;28;20474;-73
2023/03/09 04:44:23;;;;;;;3.57;1.30;;;9.80;85.80;;;;;;4976404;28;20825;-72
2023/03/09 04:46:50;;;;;;;3.40;1.53;;;9.80;84.90;;;;;;4975904;28;20829;-73
2023/03/09 04:49:16;;;;;;;4.27;1.40;;;9.70;85.00;;;;;;4976224;28;20509;-73
2023/03/09 04:51:43;;;;;;;5.80;1.60;;;9.70;84.80;;;;;;4976134;28;20478;-72
2023/03/09 04:54:11;;;;;;;2.50;1.30;;;9.80;85.00;;;;;;4976194;28;20505;-73
2023/03/09 04:56:38;;;;;;;4.90;1.40;;;9.80;85.00;;;;;;4976093;28;20458;-73
2023/03/09 04:59:04;;;;;;;3.83;1.60;;;9.80;84.10;;;;;;4976080;28;20578;-73
2023/03/09 05:01:31;;;;;;;3.50;1.33;;;9.70;84.20;;;;;;4975678;28;20486;-72
2023/03/09 05:03:58;;;;;;;2.60;1.30;;;9.60;84.30;;;;;;4975697;28;20458;-73
2023/03/09 05:06:24;;;;;;;5.33;1.90;;;9.70;84.20;;;;;;4975873;28;20484;-72
2023/03/09 05:08:51;;;;;;;4.07;1.90;;;9.70;84.30;;;;;;4975600;28;20948;-71
2023/03/09 05:11:19;;;;;;;3.93;1.80;;;9.80;84.20;;;;;;4975762;28;20529;-72
2023/03/09 05:13:46;;;;;;;3.13;1.57;;;9.60;83.90;;;;;;4976291;28;20509;-72
2023/03/09 05:16:12;;;;;;;3.17;1.50;;;9.70;83.50;;;;;;4975732;28;20798;-70
2023/03/09 05:18:39;;;;;;;3.87;1.47;;;9.70;83.40;;;;;;4975730;28;20450;-72
2023/03/09 05:21:06;;;;;;;3.97;1.80;;;9.80;83.10;;;;;;4975615;28;20572;-73
2023/03/09 05:23:33;;;;;;;4.10;1.30;;;9.80;82.90;;;;;;4975533;28;20458;-72
2023/03/09 05:26:01;;;;;;;3.90;1.40;;;9.90;82.90;;;;;;4975358;28;20489;-73
2023/03/09 05:28:30;;;;;;;4.07;1.50;;;10.00;82.70;;;;;;4975534;28;20473;-72
2023/03/09 05:30:57;;;;;;;5.10;1.87;;;10.00;82.30;;;;;;4975361;28;20477;-73
2023/03/09 05:33:23;;;;;;;5.27;1.60;;;10.00;82.30;;;;;;4975405;28;20450;-72
2023/03/09 05:35:50;;;;;;;3.27;1.40;;;10.10;82.10;;;;;;4975402;28;20457;-72
2023/03/09 05:38:17;;;;;;;3.20;1.70;;;10.00;82.00;;;;;;4975049;28;20967;-73
2023/03/09 05:40:44;;;;;;;2.60;1.50;;;10.00;82.30;;;;;;4975212;28;20478;-73
2023/03/09 05:43:11;;;;;;;3.70;1.30;;;10.00;82.40;;;;;;4975261;28;20449;-72
2023/03/09 05:45:39;;;;;;;3.47;1.70;;;10.00;82.40;;;;;;4975121;28;20512;-73
2023/03/09 05:48:06;;;;;;;5.03;1.73;;;10.10;81.90;;;;;;4975172;28;20509;-72
2023/03/09 05:50:33;;;;;;;3.70;1.47;;;10.20;82.30;;;;;;4974729;28;20971;-71
2023/03/09 05:53:00;;;;;;;2.87;1.40;;;10.20;82.30;;;;;;4974817;28;20886;-72
2023/03/09 05:55:27;;;;;;;3.40;1.80;;;10.30;82.00;;;;;;4975064;28;20454;-72
2023/03/09 05:57:54;;;;;;;3.13;1.63;;;10.40;81.60;;;;;;4974986;28;20450;-72
2023/03/09 06:00:21;;;;;;;3.67;1.53;;;10.50;81.50;;;;;;4974885;28;20450;-73
2023/03/09 06:02:49;;;;;;;3.07;1.47;;;10.60;80.80;;;;;;4974972;28;20454;-73
2023/03/09 06:05:16;;;;;;;3.10;1.37;;;10.60;80.50;;;;;;4974927;28;20513;-72
2023/03/09 06:07:43;;;;;;;4.23;1.30;;;10.70;80.70;;;;;;4974794;28;20486;-72
2023/03/09 06:10:12;;;;;;;2.77;1.27;;;10.70;80.30;;;;;;4974861;28;20532;-72
2023/03/09 06:12:39;;;;;;;6.10;1.87;;;10.70;80.60;;;;;;4974783;28;20470;-72
2023/03/09 06:15:07;;;;;;;4.07;1.70;;;10.40;81.60;;;;;;4974481;28;20947;-72
2023/03/09 06:17:34;;;;;;;4.90;1.40;;;10.30;82.20;;;;;;4974750;28;20562;-72
2023/03/09 06:20:03;;;;;;;3.83;1.53;;;10.30;81.60;;;;;;4974758;28;20455;-72
2023/03/09 06:22:30;;;;;;;2.73;1.50;;;10.30;81.90;;;;;;4974280;28;20477;-72
2023/03/09 06:24:57;;;;;;;3.30;1.80;;;10.40;81.90;;;;;;4974610;28;20454;-73
2023/03/09 06:27:24;;;;;;;5.30;2.10;;;10.50;80.90;;;;;;4974205;28;20540;-72
2023/03/09 06:29:53;;;;;;;2.90;1.70;;;10.60;81.40;;;;;;4974608;28;20454;-72
2023/03/09 06:32:20;;;;;;;3.63;1.67;;;10.70;81.10;;;;;;4974458;28;20466;-72
2023/03/09 06:34:46;;;;;;;3.90;1.70;;;10.60;81.20;;;;;;4974232;28;20799;-73
2023/03/09 06:37:14;;;;;;;6.30;1.63;;;10.50;81.80;;;;;;4974036;28;20454;-71
2023/03/09 06:39:41;;;;;;;3.53;1.90;;;10.40;82.20;;;;;;4974564;28;20454;-72
2023/03/09 06:42:08;;;;;;;4.47;1.77;;;10.30;82.30;;;;;;4974219;28;20505;-73
2023/03/09 06:44:34;;;;;;;2.80;1.60;;;10.10;82.70;;;;;;4974504;28;20450;-72
2023/03/09 06:47:01;;;;;;;3.40;1.20;;;10.00;83.50;;;;;;4974491;28;20556;-72
2023/03/09 06:49:28;;;;;;;3.20;1.33;;;10.00;83.50;;;;;;4974527;28;20461;-72
2023/03/09 06:51:54;;;;;;;3.47;1.47;;;9.90;84.00;;;;;;4974238;28;20877;-72
2023/03/09 06:54:22;;;;;;;2.63;1.27;;;10.10;84.70;;;;;;4974997;28;20450;-73
2023/03/09 06:56:49;;;;;;;2.87;1.40;;;10.10;83.80;;;;;;4974533;28;20869;-72
2023/03/09 06:59:16;;;;;;;2.50;1.40;;;10.40;83.50;;;;;;4974573;28;20461;-72
2023/03/09 07:01:42;;;;;;;2.80;1.80;;;10.60;82.90;;;;;;4974335;28;20485;-72
2023/03/09 07:04:09;;;;;;;3.97;1.60;;;10.80;81.90;;;;;;4974639;28;20532;-72
2023/03/09 07:06:36;;;;;;;5.10;1.53;;;10.70;82.60;;;;;;4974398;28;20489;-72
2023/03/09 07:09:03;;;;;;;2.70;1.43;;;10.60;81.80;;;;;;4974669;28;20450;-72
2023/03/09 07:11:31;;;;;;;3.10;1.40;;;10.50;81.70;;;;;;4974929;28;20478;-72
2023/03/09 07:13:58;;;;;;;4.40;1.50;;;10.50;82.70;;;;;;4974456;28;20454;-72
2023/03/09 07:16:24;;;;;;;3.90;1.70;;;10.50;82.90;;;;;;4974241;28;20525;-73
2023/03/09 07:18:51;;;;;;;4.23;1.43;;;10.90;80.50;;;;;;4974383;28;20537;-70
2023/03/09 07:21:18;;;;;;;3.60;1.30;;;11.50;81.20;;;;;;4973669;28;21039;-72
2023/03/09 07:23:45;;;;;;;3.20;1.50;;;13.70;74.10;;;;;;4973975;28;20459;-72
2023/03/09 07:26:12;;;;;;;3.40;1.47;;;15.20;69.40;;;;;;4973924;28;20454;-72
2023/03/09 07:28:40;;;;;;;2.80;1.33;;;15.50;67.50;;;;;;4973987;28;20451;-72
2023/03/09 07:31:08;;;;;;;4.00;1.30;;;15.70;66.90;;;;;;4973911;28;20599;-73
2023/03/09 07:33:35;;;;;;;2.70;1.30;;;17.10;65.00;;;;;;4974172;28;20450;-73
2023/03/09 07:36:03;;;;;;;2.87;1.37;;;18.70;59.80;;;;;;4973930;28;20451;-73
2023/03/09 07:38:30;;;;;;;3.90;1.13;;;19.80;55.40;;;;;;4973864;28;20516;-72
2023/03/09 07:40:57;;;;;;;2.83;1.30;;;19.90;55.40;;;;;;4973761;28;20474;-73
2023/03/09 07:43:24;;;;;;;3.47;1.10;;;20.90;52.80;;;;;;4973979;28;20451;-72
2023/03/09 07:45:52;;;;;;;2.93;1.10;;;21.50;52.30;;;;;;4973955;28;20457;-73
2023/03/09 07:48:19;;;;;;;3.13;1.63;;;21.80;50.00;;;;;;4973762;28;20517;-73
2023/03/09 07:50:46;;;;;;;4.93;1.50;;;22.10;50.70;;;;;;4976619;28;20893;-74
2023/03/09 07:53:12;;;;;;;2.50;1.30;;;22.90;48.10;;;;;;4977242;28;20461;-73
2023/03/09 07:55:39;;;;;;;2.87;1.30;;;22.70;48.70;;;;;;4977191;28;20446;-75
2023/03/09 07:58:06;;;;;;;2.50;1.10;;;22.40;48.70;;;;;;4977182;28;20442;-73
2023/03/09 08:00:32;;;;;;;2.87;1.77;;;22.10;49.60;;;;;;4976941;28;20446;-74
2023/03/09 08:03:01;;;;;;;2.70;1.20;;;21.90;50.00;;;;;;4977081;28;20485;-71
2023/03/09 08:05:28;;;;;;;2.90;1.30;;;21.00;52.30;;;;;;4977076;28;20537;-71
2023/03/09 08:07:55;;;;;;;2.80;1.00;;;20.00;53.20;;;;;;4976974;28;20496;-72
2023/03/09 08:10:21;;;;;;;2.33;1.03;;;18.70;55.00;;;;;;4976897;28;20446;-74
2023/03/09 08:12:50;;;;;;;4.33;1.20;;;16.60;59.40;;;;;;4976964;28;20541;-73
2023/03/09 08:15:18;;;;;;;2.80;1.03;;;15.00;64.10;;;;;;4976782;28;20531;-73
2023/03/09 08:17:45;;;;;;;6.30;1.40;;;14.50;66.20;;;;;;4976957;28;20449;-71
2023/03/09 08:20:14;;;;;;;5.10;1.43;;;14.10;68.60;;;;;;4976769;28;21047;-72
2023/03/09 08:22:40;;;;;;;3.17;1.20;;;14.40;68.00;;;;;;4976689;28;20470;-72
2023/03/09 08:25:08;;;;;;;4.10;1.10;;;14.00;68.10;;;;;;4976849;28;20455;-71
2023/03/09 08:27:39;;;;;;;2.23;0.93;;;13.70;69.50;;;;;;4976347;28;21002;-72
2023/03/09 08:30:07;;;;;;;2.50;1.10;;;13.50;70.90;;;;;;4976323;28;20522;-71
2023/03/09 08:32:34;;;;;;;2.50;1.20;;;13.30;71.10;;;;;;4976589;28;20478;-73
2023/03/09 08:35:00;;;;;;;2.20;1.07;;;13.10;72.00;;;;;;4976264;28;20932;-73
2023/03/09 08:37:28;;;;;;;2.63;1.17;;;13.30;71.80;;;;;;4976593;28;20458;-73
2023/03/09 08:39:55;;;;;;;2.87;1.40;;;13.50;71.70;;;;;;4976599;28;20466;-74
2023/03/09 08:42:22;;;;;;;2.80;1.33;;;13.40;70.70;;;;;;4976590;28;20478;-73
2023/03/09 08:44:48;;;;;;;2.60;1.03;;;12.90;72.80;;;;;;4976576;28;20450;-73
2023/03/09 08:47:15;;;;;;;3.23;1.13;;;12.50;74.20;;;;;;4976303;28;20490;-72
2023/03/09 08:49:42;;;;;;;4.50;1.30;;;12.40;74.80;;;;;;4976358;28;20450;-73
2023/03/09 08:52:10;;;;;;;2.40;1.10;;;12.40;75.80;;;;;;4976146;28;20816;-71
2023/03/09 08:54:38;;;;;;;2.20;0.90;;;12.10;75.70;;;;;;4976184;28;20479;-72
2023/03/09 08:57:04;;;;;;;2.40;0.90;;;12.20;76.60;;;;;;4976073;28;20502;-71
2023/03/09 08:59:31;;;;;;;2.30;1.00;;;12.30;75.60;;;;;;4976203;28;20450;-72
2023/03/09 09:01:58;;;;;;;3.80;1.00;;;12.50;75.50;;;;;;4976297;28;20509;-72
2023/03/09 09:04:25;;;;;;;2.70;1.00;;;12.70;75.00;;;;;;4976385;28;20484;-72
2023/03/09 09:06:52;;;;;;;2.77;0.90;;;13.10;75.90;;;;;;4975778;28;20984;-73
2023/03/09 09:09:19;;;;;;;2.00;0.90;;;13.40;73.20;;;;;;4976445;28;20453;-72
2023/03/09 09:11:47;;;;;;;2.67;1.00;;;13.50;73.20;;;;;;4976507;28;20482;-72
2023/03/09 09:14:15;;;;;;;2.20;0.90;;;13.40;73.70;;;;;;4976422;28;20446;-72
2023/03/09 09:16:42;;;;;;;3.37;1.00;;;13.30;74.00;;;;;;4976419;28;20450;-71
2023/03/09 09:19:08;;;;;;;2.83;1.30;;;12.90;74.80;;;;;;4976072;28;20497;-71
2023/03/09 09:21:35;;;;;;;2.10;1.00;;;12.50;76.90;;;;;;4975950;28;20470;-72
2023/03/09 09:24:01;;;;;;;2.60;1.10;;;12.20;78.80;;;;;;4975769;28;20450;-71
2023/03/09 09:26:29;;;;;;;2.53;0.90;;;11.90;79.10;;;;;;4975553;28;20461;-72
2023/03/09 09:28:57;;;;;;;2.47;0.90;;;11.80;80.30;;;;;;4975582;28;20490;-71
2023/03/09 09:31:24;;;;;;;2.83;1.20;;;11.70;80.80;;;;;;4975753;28;20474;-71
2023/03/09 09:33:50;;;;;;;2.20;0.90;;;11.70;82.20;;;;;;4975843;28;20533;-72
2023/03/09 09:36:18;;;;;;;2.43;1.10;;;12.10;82.90;;;;;;4975948;28;20553;-71
2023/03/09 09:38:45;;;;;;;2.60;1.07;;;12.30;82.60;;;;;;4975786;28;20466;-71
2023/03/09 09:41:19;;;;;;;2.10;0.77;;;12.50;81.00;;;;;;4975586;28;20470;-71
2023/03/09 09:43:48;;;;;;;2.30;1.00;;;12.50;79.50;;;;;;4975715;28;20438;-72
2023/03/09 09:46:19;;;;;;;2.77;1.07;;;12.30;79.20;;;;;;4975139;28;20857;-72
2023/03/09 09:48:48;;;;;;;2.50;1.03;;;12.10;79.50;;;;;;4975465;28;20545;-72
2023/03/09 09:51:51;;;;;;;2.60;1.10;;;11.90;80.40;;;;;;4975120;28;20474;-72
2023/03/09 09:54:27;;;;;;;2.27;1.20;;;11.90;81.00;;;;;;4934601;29;20432;-72
2023/03/09 09:56:58;;;;;;;2.20;1.00;;;11.90;81.00;;;;;;4969660;28;20476;-73
2023/03/09 09:59:30;;;;;;;3.13;1.20;;;11.90;80.00;;;;;;4975255;28;20430;-71
2023/03/09 10:02:03;;;;;;;2.07;0.90;;;11.90;79.30;;;;;;4974813;28;20489;-73
2023/03/09 10:04:36;;;;;;;2.43;1.00;;;11.80;79.70;;;;;;4975114;28;20529;-72
2023/03/09 10:07:14;;;;;;;2.10;0.90;;;11.90;80.30;;;;;;4974999;28;20777;-72
2023/03/09 10:09:43;;;;;;;2.53;1.00;;;11.90;79.90;;;;;;4975288;28;20434;-72
2023/03/09 10:12:15;;;;;;;3.50;0.80;;;12.00;79.60;;;;;;4974196;28;21015;-72
2023/03/09 10:14:45;;;;;;;2.43;0.90;;;12.10;79.50;;;;;;4975596;28;20485;-72
2023/03/09 10:17:21;;;;;;;2.30;0.90;;;12.30;79.30;;;;;;4974739;28;20501;-72
2023/03/09 10:19:49;;;;;;;2.47;1.00;;;12.30;79.80;;;;;;4975787;28;20442;-73
2023/03/09 10:22:22;;;;;;;3.30;1.00;;;12.30;79.40;;;;;;4975173;28;20477;-72
2023/03/09 10:24:50;;;;;;;1.90;0.80;;;12.40;78.70;;;;;;4975135;28;20855;-72
2023/03/09 10:27:20;;;;;;;2.57;1.23;;;12.40;78.90;;;;;;4974614;28;20537;-72
2023/03/09 10:29:54;;;;;;;2.10;1.00;;;12.40;78.70;;;;;;4974364;28;20500;-72
2023/03/09 10:32:34;;;;;;;2.13;0.90;;;12.30;78.20;;;;;;4974892;28;20532;-72
2023/03/09 10:35:18;;;;;;;2.53;1.00;;;12.10;78.10;;;;;;4974844;28;20430;-71
2023/03/09 10:37:47;;;;;;;2.13;0.87;;;12.30;78.00;;;;;;4974697;28;20427;-71
2023/03/09 10:40:19;;;;;;;2.60;1.10;;;12.40;77.40;;;;;;4974273;28;20958;-72
2023/03/09 10:42:46;;;;;;;2.33;1.00;;;12.70;77.50;;;;;;4974508;28;20912;-72
2023/03/09 10:45:23;;;;;;;2.30;1.00;;;12.90;75.90;;;;;;4974406;28;20948;-72
2023/03/09 10:47:55;;;;;;;2.43;1.00;;;13.10;75.50;;;;;;4974196;28;20889;-71
2023/03/09 10:50:24;;;;;;;2.90;0.83;;;13.00;75.10;;;;;;4974515;28;20481;-73
2023/03/09 10:52:52;;;;;;;3.63;1.40;;;13.10;76.10;;;;;;4974537;28;20537;-72
2023/03/09 10:55:42;;;;;;;2.20;0.90;;;13.00;75.00;;;;;;4974604;28;20446;-72
2023/03/09 10:58:16;;;;;;;2.27;0.93;;;13.10;74.60;;;;;;4974611;28;20438;-72
2023/03/09 11:00:57;;;;;;;4.40;1.50;;;13.00;72.70;;;;;;4974156;28;20482;-73
2023/03/09 11:03:30;;;;;;;4.30;1.10;;;13.00;74.10;;;;;;4974234;28;20855;-73
2023/03/09 11:06:20;;;;;;;2.43;1.10;;;13.10;72.50;;;;;;4974408;28;20431;-73
2023/03/09 11:08:57;;;;;;;3.33;1.17;;;13.20;73.00;;;;;;4974256;28;20525;-73
2023/03/09 11:11:26;;;;;;;2.80;1.10;;;13.40;72.80;;;;;;4974109;28;20477;-73
2023/03/09 11:13:54;;;;;;;4.20;1.20;;;13.50;73.30;;;;;;4974141;28;20450;-73
2023/03/09 11:16:23;;;;;;;3.00;1.20;;;13.50;71.20;;;;;;4974338;28;20450;-72
2023/03/09 11:19:06;;;;;;;2.83;1.20;;;13.60;71.90;;;;;;4974748;28;20454;-72
2023/03/09 11:21:34;;;;;;;4.50;1.10;;;13.60;71.30;;;;;;4973949;28;20569;-72
2023/03/09 11:24:03;;;;;;;4.33;1.00;;;13.90;71.50;;;;;;4976375;28;20458;-73
2023/03/09 11:26:35;;;;;;;2.80;1.10;;;13.90;69.50;;;;;;4978136;28;20532;-73
2023/03/09 11:29:08;;;;;;;2.60;1.13;;;14.00;69.60;;;;;;4977840;28;20470;-71
2023/03/09 11:31:38;;;;;;;3.70;1.47;;;13.90;68.30;;;;;;4978011;28;20469;-72
2023/03/09 11:34:13;;;;;;;2.80;1.50;;;14.00;68.80;;;;;;4977981;28;20449;-72
2023/03/09 11:36:45;;;;;;;3.93;1.57;;;14.00;68.70;;;;;;4977789;28;20438;-74
2023/03/09 11:39:25;;;;;;;2.83;1.20;;;14.20;67.10;;;;;;4977711;28;20500;-73
2023/03/09 11:41:55;;;;;;;3.10;1.13;;;14.30;67.70;;;;;;4977662;28;20481;-73
2023/03/09 11:44:26;;;;;;;3.90;1.43;;;13.90;67.20;;;;;;4977519;28;20446;-73
2023/03/09 11:46:57;;;;;;;3.07;1.37;;;13.80;68.70;;;;;;4977359;28;20497;-73
2023/03/09 11:49:27;;;;;;;5.07;1.70;;;13.90;68.10;;;;;;4977383;28;20470;-73
2023/03/09 11:51:56;;;;;;;2.50;1.40;;;13.90;68.00;;;;;;4977204;28;20474;-72
2023/03/09 11:54:28;;;;;;;3.00;1.47;;;13.90;69.10;;;;;;4977745;28;20944;-73
2023/03/09 11:56:55;;;;;;;3.50;1.30;;;14.10;68.30;;;;;;4977375;28;20435;-73
2023/03/09 11:59:29;;;;;;;3.50;1.47;;;14.10;67.40;;;;;;4977585;28;20446;-73
2023/03/09 12:02:00;;;;;;;2.20;1.10;;;13.90;68.00;;;;;;4977291;28;20485;-72
2023/03/09 12:04:28;;;;;;;2.50;1.10;;;13.70;69.70;;;;;;4977728;28;20837;-72
2023/03/09 12:07:00;;;;;;;2.57;1.20;;;13.50;69.70;;;;;;4977668;28;20454;-73
2023/03/09 12:09:33;;;;;;;3.03;1.20;;;13.70;68.80;;;;;;4977286;28;20891;-73
2023/03/09 12:12:05;;;;;;;2.73;1.10;;;13.80;69.10;;;;;;4976936;28;20905;-75
2023/03/09 12:14:35;;;;;;;4.10;1.30;;;14.00;70.90;;;;;;4977796;28;20481;-74
2023/03/09 12:17:11;;;;;;;2.87;1.00;;;14.20;69.50;;;;;;4977953;28;20552;-75
2023/03/09 12:19:39;;;;;;;4.33;1.67;;;14.50;69.20;;;;;;4977244;28;20426;-74
2023/03/09 12:22:08;;;;;;;2.00;0.90;;;14.70;67.40;;;;;;4976525;28;20899;-76
2023/03/09 12:24:38;;;;;;;2.40;1.00;;;15.00;67.50;;;;;;4976762;28;20957;-75
2023/03/09 12:27:14;;;;;;;2.23;0.97;;;15.30;66.20;;;;;;4976720;28;20430;-74
2023/03/09 12:29:46;;;;;;;2.97;1.63;;;15.60;64.60;;;;;;4977138;28;20521;-77
2023/03/09 12:32:39;;;;;;;3.00;1.10;;;15.70;63.80;;;;;;4977502;28;20470;-74
2023/03/09 12:35:41;;;;;;;2.77;1.27;;;15.80;63.50;;;;;;4977232;28;20501;-74
2023/03/09 12:38:21;;;;;;;2.67;1.47;;;15.70;64.30;;;;;;4974779;28;20450;-74
2023/03/09 12:40:49;;;;;;;3.00;1.10;;;15.70;63.20;;;;;;4976848;28;20473;-75
2023/03/09 12:43:49;;;;;;;3.10;1.10;;;15.50;62.80;;;;;;4976832;28;20446;-74
2023/03/09 12:46:58;;;;;;;2.73;1.23;;;15.20;64.20;;;;;;4977645;28;20439;-75
2023/03/09 12:49:27;;;;;;;2.50;1.10;;;15.40;63.20;;;;;;4944920;28;20501;-74
2023/03/09 12:52:39;;;;;;;2.87;1.53;;;15.50;62.60;;;;;;4977461;28;21042;-75
2023/03/09 12:55:17;;;;;;;3.60;1.27;;;15.20;62.50;;;;;;4966809;28;20474;-74
2023/03/09 12:57:45;;;;;;;2.10;1.10;;;14.80;64.10;;;;;;4976672;28;20438;-74
2023/03/09 13:00:29;;;;;;;3.40;1.10;;;14.60;64.30;;;;;;4977181;28;20808;-74
2023/03/09 13:03:00;;;;;;;4.20;1.63;;;14.60;65.30;;;;;;4976764;28;20529;-75
2023/03/09 13:05:33;;;;;;;2.70;1.10;;;14.50;64.80;;;;;;4976638;28;20439;-74
2023/03/09 13:08:04;;;;;;;3.50;1.20;;;14.30;65.00;;;;;;4975911;28;20968;-74
2023/03/09 13:10:34;;;;;;;3.47;1.40;;;13.80;66.40;;;;;;4976516;28;20891;-75
2023/03/09 13:13:45;;;;;;;3.40;1.30;;;13.70;67.60;;;;;;4976458;28;20825;-74
2023/03/09 13:16:37;;;;;;;2.77;1.10;;;13.60;67.60;;;;;;4966424;28;20520;-74
2023/03/09 13:19:39;;;;;;;2.77;1.30;;;13.70;68.80;;;;;;4976094;28;20442;-74
2023/03/09 13:22:18;;;;;;;2.87;1.37;;;13.80;68.60;;;;;;4976247;28;20466;-74
2023/03/09 13:24:47;;;;;;;4.50;1.17;;;14.10;68.20;;;;;;4976726;28;20875;-74
2023/03/09 13:27:22;;;;;;;2.23;1.17;;;14.00;67.70;;;;;;4976299;28;20462;-73
2023/03/09 13:29:51;;;;;;;4.30;1.80;;;13.90;68.20;;;;;;4976295;28;20474;-74
2023/03/09 13:32:23;;;;;;;2.90;1.47;;;13.70;69.80;;;;;;4976912;28;21008;-74
2023/03/09 13:34:51;;;;;;;2.70;0.93;;;13.60;68.40;;;;;;4976658;28;20831;-74
2023/03/09 13:37:22;;;;;;;3.10;1.00;;;13.50;68.70;;;;;;4976486;28;20469;-74
2023/03/09 13:39:59;;;;;;;3.30;1.20;;;13.70;68.90;;;;;;4975852;28;20946;-75
2023/03/09 13:42:28;;;;;;;4.23;1.50;;;13.60;69.30;;;;;;4975844;28;20520;-75
2023/03/09 13:44:56;;;;;;;2.70;1.10;;;13.60;69.00;;;;;;4976577;28;20505;-74
2023/03/09 13:47:25;;;;;;;2.60;1.17;;;13.70;68.90;;;;;;4976338;28;20509;-75
2023/03/09 13:49:53;;;;;;;2.90;1.03;;;13.50;69.00;;;;;;4975784;28;20474;-73
2023/03/09 13:52:20;;;;;;;2.40;1.20;;;13.40;69.60;;;;;;4976258;28;20470;-74
2023/03/09 13:54:54;;;;;;;2.57;1.30;;;13.30;70.20;;;;;;4975770;28;20454;-75
2023/03/09 13:57:22;;;;;;;2.03;0.80;;;13.20;70.30;;;;;;4976335;28;20458;-75
2023/03/09 14:00:01;;;;;;;2.50;1.23;;;13.10;70.70;;;;;;4975623;28;20855;-74
2023/03/09 14:02:30;;;;;;;2.30;0.90;;;13.10;71.60;;;;;;4975215;28;20514;-75
2023/03/09 14:05:07;;;;;;;2.30;1.10;;;13.20;71.10;;;;;;4976015;28;20582;-74
2023/03/09 14:07:38;;;;;;;3.10;1.60;;;13.50;71.90;;;;;;4976825;28;20427;-74
2023/03/09 14:10:08;;;;;;;2.53;1.10;;;13.90;70.10;;;;;;4976330;28;20478;-75
2023/03/09 14:12:38;;;;;;;2.77;1.10;;;14.10;68.60;;;;;;4975360;28;20485;-74
2023/03/09 14:15:16;;;;;;;1.93;0.83;;;13.80;69.80;;;;;;4975372;28;20501;-74
2023/03/09 14:17:44;;;;;;;3.83;2.00;;;13.70;70.20;;;;;;4975382;28;20431;-75
2023/03/09 14:20:17;;;;;;;2.20;0.90;;;13.60;70.30;;;;;;4975824;28;20577;-76
2023/03/09 14:22:44;;;;;;;2.77;1.10;;;14.00;69.40;;;;;;4975206;28;20478;-76
2023/03/09 14:25:30;;;;;;;4.40;1.23;;;15.00;66.30;;;;;;4975769;28;20446;-75
2023/03/09 14:27:59;;;;;;;5.03;1.10;;;15.50;66.00;;;;;;4975746;28;20458;-75
2023/03/09 14:30:41;;;;;;;3.13;1.40;;;16.60;61.90;;;;;;4975388;28;21011;-74
2023/03/09 14:33:22;;;;;;;2.30;1.20;;;16.70;60.90;;;;;;4977292;28;20442;-74
2023/03/09 14:35:49;;;;;;;3.10;1.10;;;17.50;58.80;;;;;;4977797;28;20862;-74
2023/03/09 14:38:19;;;;;;;2.53;1.23;;;17.10;59.80;;;;;;4974887;28;20871;-74
2023/03/09 14:40:46;;;;;;;2.00;0.90;;;16.50;61.50;;;;;;4974725;28;20817;-75
2023/03/09 14:43:33;;;;;;;4.13;1.30;;;16.70;61.20;;;;;;4974955;28;20504;-75
2023/03/09 14:46:11;;;;;;;4.23;1.10;;;16.60;60.70;;;;;;4974933;28;20850;-74
2023/03/09 14:48:37;;;;;;;2.20;1.00;;;16.00;62.30;;;;;;4975018;28;20534;-76
2023/03/09 14:51:10;;;;;;;2.73;1.33;;;15.40;63.70;;;;;;4975296;28;20477;-74
2023/03/09 14:53:36;;;;;;;4.93;1.30;;;15.10;65.00;;;;;;4975016;28;20439;-74
2023/03/09 14:56:03;;;;;;;3.20;1.33;;;15.40;65.20;;;;;;4974825;28;20447;-74
2023/03/09 14:58:30;;;;;;;2.40;1.07;;;16.60;62.00;;;;;;4976137;28;20513;-75
2023/03/09 15:00:57;;;;;;;3.10;1.37;;;17.10;60.20;;;;;;4978472;28;20537;-74
2023/03/09 15:03:24;;;;;;;2.87;1.10;;;16.90;60.30;;;;;;4979236;28;20798;-74
2023/03/09 15:05:51;;;;;;;3.17;1.80;;;17.10;61.50;;;;;;4978264;28;20951;-75
2023/03/09 15:08:18;;;;;;;2.30;0.97;;;17.80;58.60;;;;;;4978573;28;20500;-74
2023/03/09 15:10:44;;;;;;;2.87;1.30;;;18.60;58.00;;;;;;4978496;28;20490;-74
2023/03/09 15:13:11;;;;;;;2.53;1.13;;;18.80;56.70;;;;;;4978323;28;20461;-74
2023/03/09 15:15:38;;;;;;;2.10;0.93;;;19.60;55.50;;;;;;4978842;28;20607;-74
2023/03/09 15:18:05;;;;;;;4.13;1.80;;;19.90;53.70;;;;;;4979122;28;21087;-72
2023/03/09 15:20:33;;;;;;;3.30;1.33;;;18.90;55.30;;;;;;4979152;28;20504;-72
2023/03/09 15:22:59;;;;;;;2.67;1.20;;;18.60;56.10;;;;;;4978399;28;20450;-73
2023/03/09 15:25:26;;;;;;;3.77;1.40;;;18.50;56.00;;;;;;4978520;28;20970;-75
2023/03/09 15:27:53;;;;;;;3.73;1.23;;;18.60;56.30;;;;;;4979023;28;20481;-75
2023/03/09 15:30:20;;;;;;;2.87;1.30;;;18.60;55.90;;;;;;4978827;28;21062;-75
2023/03/09 15:32:47;;;;;;;3.10;1.30;;;18.50;55.90;;;;;;4979159;28;20962;-75
2023/03/09 15:35:17;;;;;;;3.00;1.50;;;18.00;57.10;;;;;;4978551;28;20490;-75
2023/03/09 15:37:46;;;;;;;3.80;1.67;;;17.40;58.00;;;;;;4977678;28;21006;-75
2023/03/09 15:40:14;;;;;;;2.53;1.00;;;16.80;59.60;;;;;;4978366;28;20450;-74
2023/03/09 15:42:42;;;;;;;3.23;1.50;;;16.30;61.00;;;;;;4977965;28;20544;-74
2023/03/09 15:45:11;;;;;;;2.93;1.17;;;15.70;62.30;;;;;;4978564;28;20504;-74
2023/03/09 15:47:37;;;;;;;3.37;1.20;;;15.10;64.10;;;;;;4978269;28;20812;-74
2023/03/09 15:50:06;;;;;;;4.80;1.70;;;14.80;65.10;;;;;;4978059;28;20482;-74
2023/03/09 15:52:33;;;;;;;2.70;1.30;;;14.50;66.20;;;;;;4978921;28;20469;-75
2023/03/09 15:55:01;;;;;;;4.43;1.70;;;14.30;66.80;;;;;;4978878;28;20454;-74
2023/03/09 15:57:28;;;;;;;3.00;1.57;;;14.30;66.80;;;;;;4979300;28;20849;-75
2023/03/09 15:59:56;;;;;;;5.00;1.97;;;14.10;67.90;;;;;;4980523;28;20497;-75
2023/03/09 16:02:23;;;;;;;3.70;1.70;;;14.10;67.90;;;;;;4979972;28;20490;-75
2023/03/09 16:04:50;;;;;;;3.30;1.40;;;14.10;67.60;;;;;;4978515;28;20454;-75
2023/03/09 16:07:17;;;;;;;3.27;1.40;;;14.30;66.90;;;;;;4978113;28;20501;-75
2023/03/09 16:09:43;;;;;;;3.60;1.60;;;14.00;66.70;;;;;;4977439;28;20482;-75
2023/03/09 16:12:12;;;;;;;5.60;2.07;;;14.00;66.80;;;;;;4978059;28;20887;-76
2023/03/09 16:14:38;;;;;;;2.73;1.50;;;13.90;67.70;;;;;;4978686;28;20457;-75
2023/03/09 16:17:05;;;;;;;4.23;1.37;;;13.80;67.80;;;;;;4977685;28;20461;-74
2023/03/09 16:19:32;;;;;;;3.50;1.47;;;14.00;67.30;;;;;;4977795;28;20827;-73
2023/03/09 16:21:58;;;;;;;2.80;1.80;;;13.90;67.50;;;;;;4978260;28;20478;-72
2023/03/09 16:24:25;;;;;;;3.20;1.60;;;13.90;67.30;;;;;;4978195;28;20454;-75
2023/03/09 16:26:52;;;;;;;4.40;1.47;;;13.80;67.10;;;;;;4977519;28;20442;-75
2023/03/09 16:29:23;;;;;;;3.20;1.60;;;13.80;67.10;;;;;;4977117;28;20512;-75
2023/03/09 16:31:52;;;;;;;3.60;1.97;;;13.80;66.60;;;;;;4978403;28;20501;-74
2023/03/09 16:34:19;;;;;;;2.63;1.37;;;13.80;66.80;;;;;;4977663;28;20450;-74
2023/03/09 16:36:47;;;;;;;2.83;1.43;;;13.70;66.10;;;;;;4977252;28;20454;-75
2023/03/09 16:39:14;;;;;;;3.33;1.60;;;13.50;66.30;;;;;;4977070;28;20580;-74
2023/03/09 16:41:41;;;;;;;5.30;2.27;;;13.60;66.90;;;;;;4976638;28;20462;-74
2023/03/09 16:44:17;;;;;;;3.23;1.33;;;13.70;66.50;;;;;;4976447;28;20517;-73
2023/03/09 16:46:45;;;;;;;2.83;1.43;;;13.70;67.10;;;;;;4977266;28;20773;-74
2023/03/09 16:49:11;;;;;;;2.70;1.53;;;13.70;66.40;;;;;;4976647;28;20505;-74
2023/03/09 16:51:38;;;;;;;3.00;1.53;;;13.50;66.40;;;;;;4976531;28;20470;-74
2023/03/09 16:54:05;;;;;;;7.00;2.33;;;13.50;66.50;;;;;;4976706;28;20457;-74
2023/03/09 16:56:32;;;;;;;3.00;1.60;;;13.50;66.40;;;;;;4976415;28;20529;-73
2023/03/09 16:58:59;;;;;;;2.60;1.53;;;13.40;67.00;;;;;;4976844;28;20509;-72
2023/03/09 17:01:26;;;;;;;4.27;1.43;;;13.50;66.80;;;;;;4975896;28;20509;-74
2023/03/09 17:03:54;;;;;;;3.07;1.40;;;13.50;66.60;;;;;;4975895;28;20456;-74